createdAt,value
2023-02-05T00:01:06.208Z,-3.1
2023-02-05T00:06:05.853Z,-3.3
2023-02-05T00:11:05.970Z,-3.3
2023-02-05T00:16:05.736Z,-3.3
2023-02-05T00:21:06.137Z,-3.3
2023-02-05T00:26:05.909Z,-3.4
2023-02-05T00:31:05.953Z,-3.4
2023-02-05T00:36:05.997Z,-3.5
2023-02-05T00:41:05.762Z,-3.6
2023-02-05T00:46:05.825Z,-3.6
2023-02-05T00:51:06.011Z,-3.6
2023-02-05T00:56:05.790Z,-3.7
2023-02-05T01:01:06.828Z,-3.6
2023-02-05T01:06:06.038Z,-3.7
2023-02-05T01:11:05.759Z,-3.8
2023-02-05T01:21:07.085Z,-3.9
2023-02-05T01:26:06.254Z,-3.9
2023-02-05T01:31:06.000Z,-3.9
2023-02-05T01:36:06.499Z,-4.1
2023-02-05T01:41:05.901Z,-4.1
2023-02-05T01:46:05.915Z,-4.1
2023-02-05T01:51:05.957Z,-4.1
2023-02-05T01:56:05.766Z,-4.1
2023-02-05T02:01:07.029Z,-4.1
2023-02-05T02:06:05.834Z,-4.2
2023-02-05T02:11:05.982Z,-4.2
2023-02-05T02:16:05.860Z,-4.2
2023-02-05T02:21:05.949Z,-4.3
2023-02-05T02:26:05.833Z,-4.4
2023-02-05T02:31:06.104Z,-4.4
2023-02-05T02:36:05.753Z,-4.3
2023-02-05T02:41:05.905Z,-4.4
2023-02-05T02:46:05.896Z,-4.3
2023-02-05T02:51:06.080Z,-4.3
2023-02-05T02:56:05.726Z,-4.4
2023-02-05T03:01:06.238Z,-4.4
2023-02-05T03:06:05.812Z,-4.6
2023-02-05T03:11:05.797Z,-4.8
2023-02-05T03:16:06.038Z,-4.8
2023-02-05T03:21:05.801Z,-4.7
2023-02-05T03:26:05.934Z,-4.8
2023-02-05T03:31:06.082Z,-4.8
2023-02-05T03:36:06.098Z,-4.8
2023-02-05T03:41:05.792Z,-4.6
2023-02-05T03:46:06.016Z,-4.6
2023-02-05T03:51:06.033Z,-4.6
2023-02-05T03:56:05.792Z,-4.6
2023-02-05T04:01:06.441Z,-4.7
2023-02-05T04:06:05.800Z,-4.6
2023-02-05T04:11:05.761Z,-4.8
2023-02-05T04:16:06.043Z,-4.8
2023-02-05T04:21:05.738Z,-4.9
2023-02-05T04:26:05.750Z,-4.9
2023-02-05T04:31:06.049Z,-4.9
2023-02-05T04:36:05.843Z,-5.1
2023-02-05T04:41:06.271Z,-4.9
2023-02-05T04:46:05.909Z,-4.8
2023-02-05T04:51:05.809Z,-4.6
2023-02-05T04:56:06.210Z,-4.7
2023-02-05T05:01:14.615Z,-4.9
2023-02-05T05:06:06.344Z,-4.9
2023-02-05T05:11:05.757Z,-4.9
2023-02-05T05:16:07.332Z,-5.1
2023-02-05T05:21:06.012Z,-5.1
2023-02-05T05:26:05.878Z,-5.3
2023-02-05T05:31:06.081Z,-5.4
2023-02-05T05:36:06.338Z,-5.3
2023-02-05T05:41:05.942Z,-5.4
2023-02-05T05:46:06.131Z,-5.4
2023-02-05T05:51:05.862Z,-5.3
2023-02-05T05:56:06.107Z,-5.4
2023-02-05T06:01:05.734Z,-5.5
2023-02-05T06:06:05.765Z,-5.4
2023-02-05T06:11:06.021Z,-5.4
2023-02-05T06:16:05.879Z,-5.4
2023-02-05T06:21:06.117Z,-5.5
2023-02-05T06:26:05.868Z,-5.4
2023-02-05T06:31:05.901Z,-5.4
2023-02-05T06:36:06.022Z,-5.5
2023-02-05T06:41:05.826Z,-5.4
2023-02-05T06:46:05.995Z,-5.4
2023-02-05T06:51:05.890Z,-5.3
2023-02-05T06:56:05.843Z,-5.2
2023-02-05T07:01:09.470Z,-5.2
2023-02-05T07:06:05.788Z,-5.1
2023-02-05T07:11:05.861Z,-5.1
2023-02-05T07:16:06.505Z,-4.9
2023-02-05T07:21:05.843Z,-4.8
2023-02-05T07:26:05.844Z,-4.8
2023-02-05T07:31:06.130Z,-4.6
2023-02-05T07:36:05.792Z,-4.4
2023-02-05T07:41:05.975Z,-4.1
2023-02-05T07:46:05.752Z,-3.8
2023-02-05T07:51:06.084Z,-3.3
2023-02-05T07:56:05.849Z,-2.9
2023-02-05T08:01:13.305Z,-2.8
2023-02-05T08:06:06.270Z,-2.7
2023-02-05T08:11:05.832Z,-2.4
2023-02-05T08:16:06.054Z,-2.1
2023-02-05T08:21:05.766Z,-1.9
2023-02-05T08:26:05.835Z,-1.8
2023-02-05T08:31:06.039Z,-1.6
2023-02-05T08:36:05.850Z,-1.3
2023-02-05T08:41:06.037Z,-0.9
2023-02-05T08:46:05.762Z,-0.6
2023-02-05T08:51:05.868Z,-0.6
2023-02-05T08:56:05.874Z,-0.3
2023-02-05T09:01:12.827Z,-0.1
2023-02-05T09:06:05.873Z,-0.1
2023-02-05T09:11:06.122Z,0.2
2023-02-05T09:16:05.802Z,0.3
2023-02-05T09:21:05.770Z,0.4
2023-02-05T09:26:05.791Z,0.7
2023-02-05T09:31:05.958Z,0.6
2023-02-05T09:36:06.157Z,0.9
2023-02-05T09:41:06.171Z,0.9
2023-02-05T09:46:05.851Z,1.1
2023-02-05T09:51:05.786Z,1.2
2023-02-05T09:56:05.888Z,1.2
2023-02-05T10:01:08.231Z,1.3
2023-02-05T10:06:06.201Z,1.4
2023-02-05T10:11:06.002Z,1.5
2023-02-05T10:16:05.880Z,1.6
2023-02-05T10:21:05.828Z,1.4
2023-02-05T10:26:05.796Z,1.4
2023-02-05T10:31:05.901Z,1.6
2023-02-05T10:36:06.020Z,1.4
2023-02-05T10:41:06.012Z,1.8
2023-02-05T10:46:05.905Z,1.8
2023-02-05T10:51:05.938Z,1.9
2023-02-05T10:56:05.867Z,2
2023-02-05T11:01:06.205Z,2.3
2023-02-05T11:06:05.869Z,2.3
2023-02-05T11:11:06.117Z,2.5
2023-02-05T11:16:06.061Z,2.4
2023-02-05T11:21:05.828Z,2.3
2023-02-05T11:26:06.483Z,2.4
2023-02-05T11:31:05.918Z,2.6
2023-02-05T11:36:05.796Z,2.8
2023-02-05T11:41:05.808Z,2.7
2023-02-05T11:46:05.766Z,2.9
2023-02-05T11:51:06.035Z,3.1
2023-02-05T11:56:06.063Z,3.2
2023-02-05T12:01:10.095Z,3.3
2023-02-05T12:06:05.853Z,3.3
2023-02-05T12:11:05.778Z,3.4
2023-02-05T12:16:05.866Z,3.3
2023-02-05T12:21:05.943Z,3.1
2023-02-05T12:26:05.837Z,3.2
2023-02-05T12:31:06.044Z,3.3
2023-02-05T12:36:05.888Z,3.4
2023-02-05T12:41:06.118Z,3.4
2023-02-05T12:46:06.072Z,3.6
2023-02-05T12:51:05.820Z,3.8
2023-02-05T12:56:05.825Z,4.1
2023-02-05T13:01:06.242Z,4.2
2023-02-05T13:06:05.896Z,4.9
2023-02-05T13:11:05.872Z,4.8
2023-02-05T13:16:05.860Z,4.6
2023-02-05T13:21:05.826Z,4.4
2023-02-05T13:36:05.960Z,3.6
2023-02-05T13:41:05.794Z,3.6
2023-02-05T13:46:06.056Z,3.4
2023-02-05T13:51:06.285Z,3.3
2023-02-05T13:56:05.819Z,3.2
2023-02-05T14:01:05.920Z,3.1
2023-02-05T14:06:05.795Z,3
2023-02-05T14:11:05.828Z,2.9
2023-02-05T14:16:05.898Z,2.8
2023-02-05T14:21:05.825Z,2.8
2023-02-05T14:26:05.986Z,2.8
2023-02-05T14:31:08.706Z,2.8
2023-02-05T14:36:05.964Z,2.7
2023-02-05T14:41:05.826Z,2.6
2023-02-05T14:46:05.903Z,2.6
2023-02-05T14:51:05.893Z,2.5
2023-02-05T14:56:05.926Z,2.5
2023-02-05T15:01:06.035Z,2.5
2023-02-05T15:06:05.854Z,2.5
2023-02-05T15:11:06.783Z,2.4
2023-02-05T15:16:06.150Z,2.4
2023-02-05T15:21:06.127Z,2.4
2023-02-05T15:26:05.834Z,2.4
2023-02-05T15:31:07.709Z,2.4
2023-02-05T15:36:06.051Z,2.4
2023-02-05T15:41:05.822Z,2.3
2023-02-05T15:46:06.045Z,2.3
2023-02-05T15:51:05.868Z,2.3
2023-02-05T15:56:06.002Z,2.1
2023-02-05T16:01:05.831Z,2.1
2023-02-05T16:06:05.870Z,2.1
2023-02-05T16:11:05.904Z,2
2023-02-05T16:16:05.864Z,2
2023-02-05T16:21:05.871Z,1.9
2023-02-05T16:26:06.179Z,1.9
2023-02-05T16:31:07.923Z,1.8
2023-02-05T16:36:05.958Z,1.8
2023-02-05T16:41:05.891Z,1.8
2023-02-05T16:46:05.920Z,1.7
2023-02-05T16:51:05.816Z,1.6
2023-02-05T16:56:06.128Z,1.5
2023-02-05T17:01:05.865Z,1.4
2023-02-05T17:06:06.114Z,1.3
2023-02-05T17:11:05.955Z,1.1
2023-02-05T17:16:05.891Z,1
2023-02-05T17:21:05.810Z,0.8
2023-02-05T17:26:05.904Z,0.8
2023-02-05T17:31:07.382Z,0.5
2023-02-05T17:36:05.920Z,0.2
2023-02-05T17:41:06.196Z,0
2023-02-05T17:46:05.866Z,0
2023-02-05T17:51:05.852Z,0
2023-02-05T17:56:05.877Z,0.1
2023-02-05T18:01:06.196Z,0.1
2023-02-05T18:06:05.858Z,0.3
2023-02-05T18:11:06.039Z,0.4
2023-02-05T18:16:05.853Z,0.4
2023-02-05T18:21:05.860Z,0.5
2023-02-05T18:26:05.939Z,0.5
2023-02-05T18:31:07.495Z,0.4
2023-02-05T18:36:06.151Z,0.5
2023-02-05T18:41:05.997Z,0.6
2023-02-05T18:46:06.106Z,0.6
2023-02-05T18:51:05.838Z,0.6
2023-02-05T18:56:05.789Z,0.5
2023-02-05T19:01:05.903Z,0.6
2023-02-05T19:06:05.851Z,0.5
2023-02-05T19:11:06.042Z,0.4
2023-02-05T19:16:05.902Z,0.4
2023-02-05T19:21:06.089Z,0.4
2023-02-05T19:26:05.840Z,0.5
2023-02-05T19:31:09.716Z,0.4
2023-02-05T19:36:05.881Z,0.4
2023-02-05T19:41:06.051Z,0.3
2023-02-05T19:46:06.001Z,0.1
2023-02-05T19:51:06.097Z,-0.1
2023-02-05T19:56:05.933Z,-0.1
2023-02-05T20:01:05.940Z,-0.3
2023-02-05T20:06:05.951Z,-0.5
2023-02-05T20:11:06.073Z,-0.5
2023-02-05T20:16:05.869Z,-0.7
2023-02-05T20:21:06.049Z,-1
2023-02-05T20:26:06.125Z,-1.1
2023-02-05T20:31:06.029Z,-1.3
2023-02-05T20:36:06.151Z,-1.4
2023-02-05T20:41:05.912Z,-1.4
2023-02-05T20:46:06.097Z,-1.5
2023-02-05T20:51:05.906Z,-1.6
2023-02-05T20:56:05.905Z,-1.6
2023-02-05T21:01:05.862Z,-1.6
2023-02-05T21:06:06.244Z,-1.7
2023-02-05T21:11:06.013Z,-1.6
2023-02-05T21:16:06.130Z,-1.8
2023-02-05T21:21:05.943Z,-1.9
2023-02-05T21:26:05.937Z,-2
2023-02-05T21:31:08.846Z,-2.1
2023-02-05T21:36:05.965Z,-2.2
2023-02-05T21:41:06.022Z,-2.1
2023-02-05T21:46:05.921Z,-2
2023-02-05T21:51:05.878Z,-1.8
2023-02-05T21:56:06.162Z,-1.7
2023-02-05T22:01:05.899Z,-1.7
2023-02-05T22:06:06.115Z,-1.8
2023-02-05T22:11:05.926Z,-1.9
2023-02-05T22:16:05.893Z,-1.9
2023-02-05T22:21:06.228Z,-2
2023-02-05T22:26:05.891Z,-2.1
2023-02-05T22:31:09.066Z,-2.2
2023-02-05T22:36:05.958Z,-2.4
2023-02-05T22:41:05.999Z,-2.4
2023-02-05T22:46:06.164Z,-2.4
2023-02-05T22:51:05.864Z,-2.7
2023-02-05T22:56:06.088Z,-2.8
2023-02-05T23:01:05.976Z,-2.6
2023-02-05T23:06:05.927Z,-2.8
2023-02-05T23:11:06.213Z,-2.9
2023-02-05T23:16:05.842Z,-3
2023-02-05T23:21:06.213Z,-3
2023-02-05T23:26:05.930Z,-2.9
2023-02-05T23:31:07.562Z,-2.9
2023-02-05T23:36:06.172Z,-3
2023-02-05T23:41:05.886Z,-3.1
2023-02-05T23:46:05.959Z,-3.1
2023-02-05T23:51:06.189Z,-3.3
2023-02-05T23:56:05.945Z,-3.3
